sensor_id;sensor_type;location;lat;lon;timestamp;temperature;humidity
1179;DHT22;578;48.408;10.004;2024-01-15T00:00:50;-2.80;99.90
1179;DHT22;578;48.408;10.004;2024-01-15T00:02:51;-2.90;99.90
1179;DHT22;578;48.408;10.004;2024-01-15T00:04:53;-2.90;99.90
1179;DHT22;578;48.408;10.004;2024-01-15T00:06:57;-3.00;99.90
1179;DHT22;578;48.408;10.004;2024-01-15T00:08:59;-3.00;99.90
1179;DHT22;578;48.408;10.004;2024-01-15T00:11:01;-3.00;99.90
1179;DHT22;578;48.408;10.004;2024-01-15T00:13:02;-3.00;99.90
1179;DHT22;578;48.408;10.004;2024-01-15T00:15:04;-3.00;99.90
1179;DHT22;578;48.408;10.004;2024-01-15T00:17:06;-3.00;99.90
1179;DHT22;578;48.408;10.004;2024-01-15T00:19:08;-3.00;99.90
1179;DHT22;578;48.408;10.004;2024-01-15T00:21:09;-3.00;99.90
1179;DHT22;578;48.408;10.004;2024-01-15T00:23:12;-3.00;99.90
1179;DHT22;578;48.408;10.004;2024-01-15T00:25:14;-3.00;99.90
1179;DHT22;578;48.408;10.004;2024-01-15T00:27:16;-3.00;99.90
1179;DHT22;578;48.408;10.004;2024-01-15T00:29:17;-3.00;99.90
1179;DHT22;578;48.408;10.004;2024-01-15T00:31:18;-3.00;99.90
1179;DHT22;578;48.408;10.004;2024-01-15T00:33:19;-3.00;99.90
1179;DHT22;578;48.408;10.004;2024-01-15T00:35:21;-2.90;99.90
1179;DHT22;578;48.408;10.004;2024-01-15T00:37:23;-2.80;99.90
1179;DHT22;578;48.408;10.004;2024-01-15T00:39:25;-2.70;99.90
1179;DHT22;578;48.408;10.004;2024-01-15T00:41:26;-2.60;99.90
1179;DHT22;578;48.408;10.004;2024-01-15T00:43:29;-2.60;99.90
1179;DHT22;578;48.408;10.004;2024-01-15T00:45:31;-2.70;99.90
1179;DHT22;578;48.408;10.004;2024-01-15T00:47:32;-2.60;99.90
1179;DHT22;578;48.408;10.004;2024-01-15T00:49:33;-2.50;99.90
1179;DHT22;578;48.408;10.004;2024-01-15T00:51:35;-2.60;99.90
1179;DHT22;578;48.408;10.004;2024-01-15T00:53:37;-2.50;99.90
1179;DHT22;578;48.408;10.004;2024-01-15T00:55:40;-2.50;99.90
1179;DHT22;578;48.408;10.004;2024-01-15T00:57:42;-2.50;99.90
1179;DHT22;578;48.408;10.004;2024-01-15T00:59:44;-2.50;99.90
1179;DHT22;578;48.408;10.004;2024-01-15T01:01:46;-2.40;99.90
1179;DHT22;578;48.408;10.004;2024-01-15T01:03:48;-2.40;99.90
1179;DHT22;578;48.408;10.004;2024-01-15T01:05:49;-2.40;99.90
1179;DHT22;578;48.408;10.004;2024-01-15T01:07:51;-2.30;99.90
1179;DHT22;578;48.408;10.004;2024-01-15T01:09:52;-2.30;99.90
1179;DHT22;578;48.408;10.004;2024-01-15T01:11:54;-2.30;99.90
1179;DHT22;578;48.408;10.004;2024-01-15T01:13:56;-2.20;99.90
1179;DHT22;578;48.408;10.004;2024-01-15T01:15:58;-2.00;99.90
1179;DHT22;578;48.408;10.004;2024-01-15T01:18:00;-1.90;99.90
1179;DHT22;578;48.408;10.004;2024-01-15T01:20:02;-1.80;99.90
1179;DHT22;578;48.408;10.004;2024-01-15T01:22:06;-1.70;99.90
1179;DHT22;578;48.408;10.004;2024-01-15T01:24:08;-1.60;99.90
1179;DHT22;578;48.408;10.004;2024-01-15T01:26:10;-1.60;99.90
1179;DHT22;578;48.408;10.004;2024-01-15T01:28:13;-1.50;99.90
1179;DHT22;578;48.408;10.004;2024-01-15T01:30:15;-1.50;99.90
1179;DHT22;578;48.408;10.004;2024-01-15T01:32:16;-1.50;99.90
1179;DHT22;578;48.408;10.004;2024-01-15T01:34:18;-1.50;99.90
1179;DHT22;578;48.408;10.004;2024-01-15T01:36:18;-1.50;99.90
1179;DHT22;578;48.408;10.004;2024-01-15T01:38:20;-1.50;99.90
1179;DHT22;578;48.408;10.004;2024-01-15T01:40:22;-1.50;99.90
1179;DHT22;578;48.408;10.004;2024-01-15T01:42:23;-1.50;99.90
1179;DHT22;578;48.408;10.004;2024-01-15T01:44:26;-1.50;99.90
1179;DHT22;578;48.408;10.004;2024-01-15T01:46:28;-1.40;99.90
1179;DHT22;578;48.408;10.004;2024-01-15T01:48:29;-1.50;99.90
1179;DHT22;578;48.408;10.004;2024-01-15T01:50:32;-1.40;99.90
1179;DHT22;578;48.408;10.004;2024-01-15T01:52:34;-1.40;99.90
1179;DHT22;578;48.408;10.004;2024-01-15T01:54:37;-1.40;99.90
1179;DHT22;578;48.408;10.004;2024-01-15T01:56:39;-1.40;99.90
1179;DHT22;578;48.408;10.004;2024-01-15T01:58:42;-1.50;99.90
1179;DHT22;578;48.408;10.004;2024-01-15T02:00:46;-1.50;99.90
1179;DHT22;578;48.408;10.004;2024-01-15T02:02:47;-1.50;99.90
1179;DHT22;578;48.408;10.004;2024-01-15T02:04:49;-1.60;99.90
1179;DHT22;578;48.408;10.004;2024-01-15T02:06:51;-1.50;99.90
1179;DHT22;578;48.408;10.004;2024-01-15T02:08:53;-1.50;99.90
1179;DHT22;578;48.408;10.004;2024-01-15T02:10:55;-1.50;99.90
1179;DHT22;578;48.408;10.004;2024-01-15T02:12:57;-1.50;99.90
1179;DHT22;578;48.408;10.004;2024-01-15T02:14:59;-1.50;99.90
1179;DHT22;578;48.408;10.004;2024-01-15T02:17:03;-1.60;99.90
1179;DHT22;578;48.408;10.004;2024-01-15T02:19:04;-1.60;99.90
1179;DHT22;578;48.408;10.004;2024-01-15T02:21:06;-1.70;99.90
1179;DHT22;578;48.408;10.004;2024-01-15T02:23:11;-1.80;99.90
1179;DHT22;578;48.408;10.004;2024-01-15T02:25:13;-1.80;99.90
1179;DHT22;578;48.408;10.004;2024-01-15T02:27:15;-1.90;99.90
1179;DHT22;578;48.408;10.004;2024-01-15T02:29:17;-1.90;99.90
1179;DHT22;578;48.408;10.004;2024-01-15T02:31:19;-2.00;99.90
1179;DHT22;578;48.408;10.004;2024-01-15T02:33:21;-2.00;99.90
1179;DHT22;578;48.408;10.004;2024-01-15T02:35:21;-2.00;99.90
1179;DHT22;578;48.408;10.004;2024-01-15T02:37:23;-2.20;99.90
1179;DHT22;578;48.408;10.004;2024-01-15T02:39:26;-2.20;99.90
1179;DHT22;578;48.408;10.004;2024-01-15T02:41:29;-2.20;99.90
1179;DHT22;578;48.408;10.004;2024-01-15T02:43:30;-2.10;99.90
1179;DHT22;578;48.408;10.004;2024-01-15T02:45:32;-2.20;99.90
1179;DHT22;578;48.408;10.004;2024-01-15T02:47:32;-2.10;99.90
1179;DHT22;578;48.408;10.004;2024-01-15T02:49:34;-2.20;99.90
1179;DHT22;578;48.408;10.004;2024-01-15T02:51:36;-2.20;99.90
1179;DHT22;578;48.408;10.004;2024-01-15T02:53:39;-2.10;99.90
1179;DHT22;578;48.408;10.004;2024-01-15T02:55:42;-2.10;99.90
1179;DHT22;578;48.408;10.004;2024-01-15T02:57:44;-2.00;99.90
1179;DHT22;578;48.408;10.004;2024-01-15T02:59:46;-2.00;99.90
1179;DHT22;578;48.408;10.004;2024-01-15T03:01:47;-2.00;99.90
1179;DHT22;578;48.408;10.004;2024-01-15T03:03:48;-2.00;99.90
1179;DHT22;578;48.408;10.004;2024-01-15T03:05:50;-2.00;99.90
1179;DHT22;578;48.408;10.004;2024-01-15T03:07:52;-2.00;99.90
1179;DHT22;578;48.408;10.004;2024-01-15T03:09:53;-2.00;99.90
1179;DHT22;578;48.408;10.004;2024-01-15T03:11:57;-1.90;99.90
1179;DHT22;578;48.408;10.004;2024-01-15T03:13:59;-1.90;99.90
1179;DHT22;578;48.408;10.004;2024-01-15T03:16:01;-1.90;99.90
1179;DHT22;578;48.408;10.004;2024-01-15T03:18:03;-1.90;99.90
1179;DHT22;578;48.408;10.004;2024-01-15T03:20:06;-1.90;99.90
1179;DHT22;578;48.408;10.004;2024-01-15T03:22:07;-1.80;99.90
1179;DHT22;578;48.408;10.004;2024-01-15T03:24:09;-1.80;99.90
1179;DHT22;578;48.408;10.004;2024-01-15T03:26:11;-1.80;99.90
1179;DHT22;578;48.408;10.004;2024-01-15T03:28:14;-1.80;99.90
1179;DHT22;578;48.408;10.004;2024-01-15T03:30:15;-1.80;99.90
1179;DHT22;578;48.408;10.004;2024-01-15T03:32:17;-1.80;99.90
1179;DHT22;578;48.408;10.004;2024-01-15T03:34:20;-1.80;99.90
1179;DHT22;578;48.408;10.004;2024-01-15T03:36:21;-1.80;99.90
1179;DHT22;578;48.408;10.004;2024-01-15T03:38:23;-1.80;99.90
1179;DHT22;578;48.408;10.004;2024-01-15T03:40:25;-1.80;99.90
1179;DHT22;578;48.408;10.004;2024-01-15T03:42:26;-1.80;99.90
1179;DHT22;578;48.408;10.004;2024-01-15T03:44:28;-1.80;99.90
1179;DHT22;578;48.408;10.004;2024-01-15T03:46:30;-1.80;99.90
1179;DHT22;578;48.408;10.004;2024-01-15T03:48:32;-1.90;99.90
1179;DHT22;578;48.408;10.004;2024-01-15T03:50:34;-1.80;99.90
1179;DHT22;578;48.408;10.004;2024-01-15T03:52:35;-1.90;99.90
1179;DHT22;578;48.408;10.004;2024-01-15T03:54:38;-1.80;99.90
1179;DHT22;578;48.408;10.004;2024-01-15T03:56:40;-1.80;99.90
1179;DHT22;578;48.408;10.004;2024-01-15T03:58:41;-1.70;99.90
1179;DHT22;578;48.408;10.004;2024-01-15T04:00:45;-1.80;99.90
1179;DHT22;578;48.408;10.004;2024-01-15T04:02:46;-1.80;99.90
1179;DHT22;578;48.408;10.004;2024-01-15T04:04:47;-1.90;99.90
1179;DHT22;578;48.408;10.004;2024-01-15T04:06:49;-1.90;99.90
1179;DHT22;578;48.408;10.004;2024-01-15T04:08:51;-1.90;99.90
1179;DHT22;578;48.408;10.004;2024-01-15T04:10:52;-1.90;99.90
1179;DHT22;578;48.408;10.004;2024-01-15T04:12:55;-1.90;99.90
1179;DHT22;578;48.408;10.004;2024-01-15T04:14:57;-1.80;99.90
1179;DHT22;578;48.408;10.004;2024-01-15T04:17:00;-1.80;99.90
1179;DHT22;578;48.408;10.004;2024-01-15T04:19:02;-1.80;99.90
1179;DHT22;578;48.408;10.004;2024-01-15T04:21:04;-1.80;99.90
1179;DHT22;578;48.408;10.004;2024-01-15T04:23:06;-1.80;99.90
1179;DHT22;578;48.408;10.004;2024-01-15T04:25:08;-1.90;99.90
1179;DHT22;578;48.408;10.004;2024-01-15T04:27:10;-1.90;99.90
1179;DHT22;578;48.408;10.004;2024-01-15T04:29:11;-2.00;99.90
1179;DHT22;578;48.408;10.004;2024-01-15T04:31:21;-2.00;99.90
1179;DHT22;578;48.408;10.004;2024-01-15T04:33:24;-2.00;99.90
1179;DHT22;578;48.408;10.004;2024-01-15T04:35:26;-2.00;99.90
1179;DHT22;578;48.408;10.004;2024-01-15T04:37:27;-2.00;99.90
1179;DHT22;578;48.408;10.004;2024-01-15T04:39:29;-2.10;99.90
1179;DHT22;578;48.408;10.004;2024-01-15T04:41:31;-2.10;99.90
1179;DHT22;578;48.408;10.004;2024-01-15T04:43:32;-2.00;99.90
1179;DHT22;578;48.408;10.004;2024-01-15T04:45:33;-2.00;99.90
1179;DHT22;578;48.408;10.004;2024-01-15T04:47:35;-2.00;99.90
1179;DHT22;578;48.408;10.004;2024-01-15T04:49:38;-2.00;99.90
1179;DHT22;578;48.408;10.004;2024-01-15T04:51:40;-2.00;99.90
1179;DHT22;578;48.408;10.004;2024-01-15T04:53:42;-2.10;99.90
1179;DHT22;578;48.408;10.004;2024-01-15T04:55:43;-2.10;99.90
1179;DHT22;578;48.408;10.004;2024-01-15T04:57:44;-2.10;99.90
1179;DHT22;578;48.408;10.004;2024-01-15T04:59:46;-2.10;99.90
1179;DHT22;578;48.408;10.004;2024-01-15T05:01:48;-2.10;99.90
1179;DHT22;578;48.408;10.004;2024-01-15T05:03:49;-2.10;99.90
1179;DHT22;578;48.408;10.004;2024-01-15T05:05:52;-2.00;99.90
1179;DHT22;578;48.408;10.004;2024-01-15T05:07:54;-2.00;99.90
1179;DHT22;578;48.408;10.004;2024-01-15T05:09:55;-1.90;99.90
1179;DHT22;578;48.408;10.004;2024-01-15T05:11:57;-1.90;99.90
1179;DHT22;578;48.408;10.004;2024-01-15T05:13:59;-1.90;99.90
1179;DHT22;578;48.408;10.004;2024-01-15T05:16:01;-1.80;99.90
1179;DHT22;578;48.408;10.004;2024-01-15T05:18:02;-1.70;99.90
1179;DHT22;578;48.408;10.004;2024-01-15T05:20:04;-1.70;99.90
1179;DHT22;578;48.408;10.004;2024-01-15T05:22:07;-1.70;99.90
1179;DHT22;578;48.408;10.004;2024-01-15T05:24:09;-1.70;99.90
1179;DHT22;578;48.408;10.004;2024-01-15T05:26:11;-1.60;99.90
1179;DHT22;578;48.408;10.004;2024-01-15T05:28:13;-1.60;99.90
1179;DHT22;578;48.408;10.004;2024-01-15T05:30:15;-1.60;99.90
1179;DHT22;578;48.408;10.004;2024-01-15T05:32:18;-1.60;99.90
1179;DHT22;578;48.408;10.004;2024-01-15T05:34:18;-1.40;99.90
1179;DHT22;578;48.408;10.004;2024-01-15T05:36:20;-1.50;99.90
1179;DHT22;578;48.408;10.004;2024-01-15T05:38:23;-1.40;99.90
1179;DHT22;578;48.408;10.004;2024-01-15T05:40:25;-1.40;99.90
1179;DHT22;578;48.408;10.004;2024-01-15T05:42:26;-1.30;99.90
1179;DHT22;578;48.408;10.004;2024-01-15T05:44:31;-1.20;99.90
1179;DHT22;578;48.408;10.004;2024-01-15T05:46:32;-1.10;99.90
1179;DHT22;578;48.408;10.004;2024-01-15T05:48:34;-1.10;99.90
1179;DHT22;578;48.408;10.004;2024-01-15T05:50:36;-1.10;99.90
1179;DHT22;578;48.408;10.004;2024-01-15T05:52:38;-1.00;99.90
1179;DHT22;578;48.408;10.004;2024-01-15T05:54:41;-1.00;99.90
1179;DHT22;578;48.408;10.004;2024-01-15T05:56:42;-1.00;99.90
1179;DHT22;578;48.408;10.004;2024-01-15T05:58:44;-1.00;99.90
1179;DHT22;578;48.408;10.004;2024-01-15T06:00:46;-1.00;99.90
1179;DHT22;578;48.408;10.004;2024-01-15T06:02:48;-1.00;99.90
1179;DHT22;578;48.408;10.004;2024-01-15T06:04:50;-0.90;99.90
1179;DHT22;578;48.408;10.004;2024-01-15T06:06:51;-0.90;99.90
1179;DHT22;578;48.408;10.004;2024-01-15T06:08:52;-0.90;99.90
1179;DHT22;578;48.408;10.004;2024-01-15T06:10:57;-0.90;99.90
1179;DHT22;578;48.408;10.004;2024-01-15T06:12:59;-1.00;99.90
1179;DHT22;578;48.408;10.004;2024-01-15T06:15:01;-1.00;99.90
1179;DHT22;578;48.408;10.004;2024-01-15T06:17:03;-1.00;99.90
1179;DHT22;578;48.408;10.004;2024-01-15T06:19:04;-0.90;99.90
1179;DHT22;578;48.408;10.004;2024-01-15T06:21:06;-0.80;99.90
1179;DHT22;578;48.408;10.004;2024-01-15T06:23:10;-0.90;99.90
1179;DHT22;578;48.408;10.004;2024-01-15T06:25:12;-0.90;99.90
1179;DHT22;578;48.408;10.004;2024-01-15T06:27:15;-0.90;99.90
1179;DHT22;578;48.408;10.004;2024-01-15T06:29:17;-0.90;99.90
1179;DHT22;578;48.408;10.004;2024-01-15T06:31:19;-0.80;99.90
1179;DHT22;578;48.408;10.004;2024-01-15T06:33:21;-0.80;99.90
1179;DHT22;578;48.408;10.004;2024-01-15T06:35:22;-0.70;99.90
1179;DHT22;578;48.408;10.004;2024-01-15T06:37:24;-0.70;99.90
1179;DHT22;578;48.408;10.004;2024-01-15T06:39:26;-0.70;99.90
1179;DHT22;578;48.408;10.004;2024-01-15T06:41:27;-0.80;99.90
1179;DHT22;578;48.408;10.004;2024-01-15T06:43:30;-0.70;99.90
1179;DHT22;578;48.408;10.004;2024-01-15T06:45:32;-0.60;99.90
1179;DHT22;578;48.408;10.004;2024-01-15T06:47:33;-0.70;99.90
1179;DHT22;578;48.408;10.004;2024-01-15T06:49:35;-0.70;99.90
1179;DHT22;578;48.408;10.004;2024-01-15T06:51:37;-0.70;99.90
1179;DHT22;578;48.408;10.004;2024-01-15T06:53:39;-0.70;99.90
1179;DHT22;578;48.408;10.004;2024-01-15T06:55:41;-0.80;99.90
1179;DHT22;578;48.408;10.004;2024-01-15T06:57:43;-0.80;99.90
1179;DHT22;578;48.408;10.004;2024-01-15T06:59:46;-0.80;99.90
1179;DHT22;578;48.408;10.004;2024-01-15T07:01:48;-0.80;99.90
1179;DHT22;578;48.408;10.004;2024-01-15T07:03:49;-0.80;99.90
1179;DHT22;578;48.408;10.004;2024-01-15T07:05:51;-0.80;99.90
1179;DHT22;578;48.408;10.004;2024-01-15T07:07:53;-0.80;99.90
1179;DHT22;578;48.408;10.004;2024-01-15T07:09:55;-0.80;99.90
1179;DHT22;578;48.408;10.004;2024-01-15T07:11:56;-0.80;99.90
1179;DHT22;578;48.408;10.004;2024-01-15T07:13:58;-0.80;99.90
1179;DHT22;578;48.408;10.004;2024-01-15T07:16:00;-0.90;99.90
1179;DHT22;578;48.408;10.004;2024-01-15T07:18:02;-0.80;99.90
1179;DHT22;578;48.408;10.004;2024-01-15T07:20:06;-0.80;99.90
1179;DHT22;578;48.408;10.004;2024-01-15T07:22:08;-0.80;99.90
1179;DHT22;578;48.408;10.004;2024-01-15T07:24:10;-0.90;99.90
1179;DHT22;578;48.408;10.004;2024-01-15T07:26:12;-0.80;99.90
1179;DHT22;578;48.408;10.004;2024-01-15T07:28:14;-0.80;99.90
1179;DHT22;578;48.408;10.004;2024-01-15T07:30:16;-0.80;99.90
1179;DHT22;578;48.408;10.004;2024-01-15T07:32:19;-0.80;99.90
1179;DHT22;578;48.408;10.004;2024-01-15T07:34:21;-0.80;99.90
1179;DHT22;578;48.408;10.004;2024-01-15T07:36:22;-0.80;99.90
1179;DHT22;578;48.408;10.004;2024-01-15T07:38:24;-0.80;99.90
1179;DHT22;578;48.408;10.004;2024-01-15T07:40:26;-0.80;99.90
1179;DHT22;578;48.408;10.004;2024-01-15T07:42:27;-0.80;99.90
1179;DHT22;578;48.408;10.004;2024-01-15T07:44:28;-0.70;99.90
1179;DHT22;578;48.408;10.004;2024-01-15T07:46:30;-0.70;99.90
1179;DHT22;578;48.408;10.004;2024-01-15T07:48:33;-0.70;99.90
1179;DHT22;578;48.408;10.004;2024-01-15T07:50:35;-0.70;99.90
1179;DHT22;578;48.408;10.004;2024-01-15T07:52:37;-0.70;99.90
1179;DHT22;578;48.408;10.004;2024-01-15T07:54:39;-0.70;99.90
1179;DHT22;578;48.408;10.004;2024-01-15T07:56:54;-0.60;99.90
1179;DHT22;578;48.408;10.004;2024-01-15T07:58:56;-0.60;99.90
1179;DHT22;578;48.408;10.004;2024-01-15T08:00:58;-0.60;99.90
1179;DHT22;578;48.408;10.004;2024-01-15T08:02:59;-0.60;99.90
1179;DHT22;578;48.408;10.004;2024-01-15T08:05:05;-0.60;99.90
1179;DHT22;578;48.408;10.004;2024-01-15T08:07:07;-0.60;99.90
1179;DHT22;578;48.408;10.004;2024-01-15T08:09:08;-0.60;99.90
1179;DHT22;578;48.408;10.004;2024-01-15T08:11:11;-0.50;99.90
1179;DHT22;578;48.408;10.004;2024-01-15T08:13:12;-0.40;99.90
1179;DHT22;578;48.408;10.004;2024-01-15T08:15:14;-0.40;99.90
1179;DHT22;578;48.408;10.004;2024-01-15T08:17:16;-0.30;99.90
1179;DHT22;578;48.408;10.004;2024-01-15T08:19:17;-0.20;99.90
1179;DHT22;578;48.408;10.004;2024-01-15T08:21:21;-0.10;99.90
1179;DHT22;578;48.408;10.004;2024-01-15T08:23:23;-0.10;99.90
1179;DHT22;578;48.408;10.004;2024-01-15T08:25:25;-0.10;99.90
1179;DHT22;578;48.408;10.004;2024-01-15T08:27:27;-0.10;99.90
1179;DHT22;578;48.408;10.004;2024-01-15T08:29:29;0.00;99.90
1179;DHT22;578;48.408;10.004;2024-01-15T08:31:33;0.00;99.90
1179;DHT22;578;48.408;10.004;2024-01-15T08:33:35;0.10;99.90
1179;DHT22;578;48.408;10.004;2024-01-15T08:35:37;0.10;99.90
1179;DHT22;578;48.408;10.004;2024-01-15T08:37:40;0.10;99.90
1179;DHT22;578;48.408;10.004;2024-01-15T08:39:42;0.10;99.90
1179;DHT22;578;48.408;10.004;2024-01-15T08:41:43;0.10;99.90
1179;DHT22;578;48.408;10.004;2024-01-15T08:43:44;0.10;99.90
1179;DHT22;578;48.408;10.004;2024-01-15T08:45:45;0.20;99.90
1179;DHT22;578;48.408;10.004;2024-01-15T08:47:48;0.20;99.90
1179;DHT22;578;48.408;10.004;2024-01-15T08:49:50;0.30;99.90
1179;DHT22;578;48.408;10.004;2024-01-15T08:51:52;0.30;99.90
1179;DHT22;578;48.408;10.004;2024-01-15T08:53:55;0.30;99.90
1179;DHT22;578;48.408;10.004;2024-01-15T08:55:58;0.30;99.90
1179;DHT22;578;48.408;10.004;2024-01-15T08:58:00;0.30;99.90
1179;DHT22;578;48.408;10.004;2024-01-15T09:00:01;0.40;99.90
1179;DHT22;578;48.408;10.004;2024-01-15T09:02:04;0.30;99.90
1179;DHT22;578;48.408;10.004;2024-01-15T09:04:05;0.30;99.90
1179;DHT22;578;48.408;10.004;2024-01-15T09:06:07;0.20;99.90
1179;DHT22;578;48.408;10.004;2024-01-15T09:08:10;0.20;99.90
1179;DHT22;578;48.408;10.004;2024-01-15T09:10:13;0.30;99.90
1179;DHT22;578;48.408;10.004;2024-01-15T09:12:15;0.30;99.90
1179;DHT22;578;48.408;10.004;2024-01-15T09:14:19;0.40;99.90
1179;DHT22;578;48.408;10.004;2024-01-15T09:16:22;0.50;99.90
1179;DHT22;578;48.408;10.004;2024-01-15T09:18:24;0.50;99.90
1179;DHT22;578;48.408;10.004;2024-01-15T09:20:26;0.60;99.90
1179;DHT22;578;48.408;10.004;2024-01-15T09:22:28;0.60;99.90
1179;DHT22;578;48.408;10.004;2024-01-15T09:24:30;0.70;99.90
1179;DHT22;578;48.408;10.004;2024-01-15T09:26:33;0.80;99.90
1179;DHT22;578;48.408;10.004;2024-01-15T09:28:35;1.10;99.70
1179;DHT22;578;48.408;10.004;2024-01-15T09:30:37;1.30;97.00
1179;DHT22;578;48.408;10.004;2024-01-15T09:32:38;1.40;93.70
1179;DHT22;578;48.408;10.004;2024-01-15T09:34:40;1.30;91.90
1179;DHT22;578;48.408;10.004;2024-01-15T09:36:42;1.20;92.00
1179;DHT22;578;48.408;10.004;2024-01-15T09:38:44;1.30;92.30
1179;DHT22;578;48.408;10.004;2024-01-15T09:40:46;1.30;93.50
1179;DHT22;578;48.408;10.004;2024-01-15T09:42:50;1.60;93.50
1179;DHT22;578;48.408;10.004;2024-01-15T09:44:53;1.80;91.40
1179;DHT22;578;48.408;10.004;2024-01-15T09:46:55;2.00;88.80
1179;DHT22;578;48.408;10.004;2024-01-15T09:48:57;1.90;85.90
1179;DHT22;578;48.408;10.004;2024-01-15T09:51:01;1.90;78.30
1179;DHT22;578;48.408;10.004;2024-01-15T09:53:04;1.80;80.60
1179;DHT22;578;48.408;10.004;2024-01-15T09:55:09;1.90;76.80
1179;DHT22;578;48.408;10.004;2024-01-15T09:57:11;1.90;78.90
1179;DHT22;578;48.408;10.004;2024-01-15T09:59:15;1.90;77.10
1179;DHT22;578;48.408;10.004;2024-01-15T10:01:18;1.80;75.30
1179;DHT22;578;48.408;10.004;2024-01-15T10:03:21;1.80;74.70
1179;DHT22;578;48.408;10.004;2024-01-15T10:05:23;1.80;71.30
1179;DHT22;578;48.408;10.004;2024-01-15T10:07:25;1.80;69.20
1179;DHT22;578;48.408;10.004;2024-01-15T10:09:28;1.90;69.50
1179;DHT22;578;48.408;10.004;2024-01-15T10:11:31;1.90;68.90
1179;DHT22;578;48.408;10.004;2024-01-15T10:13:34;2.00;71.90
1179;DHT22;578;48.408;10.004;2024-01-15T10:15:37;1.90;76.70
1179;DHT22;578;48.408;10.004;2024-01-15T10:17:41;2.00;75.90
1179;DHT22;578;48.408;10.004;2024-01-15T10:19:44;2.00;74.40
1179;DHT22;578;48.408;10.004;2024-01-15T10:21:47;2.00;64.60
1179;DHT22;578;48.408;10.004;2024-01-15T10:23:49;2.00;66.00
1179;DHT22;578;48.408;10.004;2024-01-15T10:25:50;2.00;65.40
1179;DHT22;578;48.408;10.004;2024-01-15T10:27:59;2.00;63.00
1179;DHT22;578;48.408;10.004;2024-01-15T10:30:00;2.10;69.60
1179;DHT22;578;48.408;10.004;2024-01-15T10:32:06;2.10;69.50
1179;DHT22;578;48.408;10.004;2024-01-15T10:34:12;2.10;64.70
1179;DHT22;578;48.408;10.004;2024-01-15T10:36:16;2.10;58.80
1179;DHT22;578;48.408;10.004;2024-01-15T10:38:18;2.10;54.80
1179;DHT22;578;48.408;10.004;2024-01-15T10:40:22;2.20;52.70
1179;DHT22;578;48.408;10.004;2024-01-15T10:42:24;2.20;50.50
1179;DHT22;578;48.408;10.004;2024-01-15T10:44:26;2.20;44.70
1179;DHT22;578;48.408;10.004;2024-01-15T10:46:28;2.30;48.00
1179;DHT22;578;48.408;10.004;2024-01-15T10:48:32;2.40;45.70
1179;DHT22;578;48.408;10.004;2024-01-15T10:50:36;2.50;35.30
1179;DHT22;578;48.408;10.004;2024-01-15T10:52:39;2.50;33.80
1179;DHT22;578;48.408;10.004;2024-01-15T10:54:41;2.50;34.00
1179;DHT22;578;48.408;10.004;2024-01-15T10:56:45;2.50;28.30
1179;DHT22;578;48.408;10.004;2024-01-15T10:58:47;2.60;37.70
1179;DHT22;578;48.408;10.004;2024-01-15T11:00:49;2.60;28.90
1179;DHT22;578;48.408;10.004;2024-01-15T11:02:51;2.60;21.60
1179;DHT22;578;48.408;10.004;2024-01-15T11:04:58;2.70;22.30
1179;DHT22;578;48.408;10.004;2024-01-15T11:07:02;2.70;19.50
1179;DHT22;578;48.408;10.004;2024-01-15T11:09:04;2.70;17.20
1179;DHT22;578;48.408;10.004;2024-01-15T11:11:08;2.50;15.80
1179;DHT22;578;48.408;10.004;2024-01-15T11:13:13;2.50;19.80
1179;DHT22;578;48.408;10.004;2024-01-15T11:15:19;2.50;20.10
1179;DHT22;578;48.408;10.004;2024-01-15T11:17:22;2.50;20.80
1179;DHT22;578;48.408;10.004;2024-01-15T11:19:24;2.40;23.20
1179;DHT22;578;48.408;10.004;2024-01-15T11:21:26;2.50;28.10
1179;DHT22;578;48.408;10.004;2024-01-15T11:23:42;2.40;29.60
1179;DHT22;578;48.408;10.004;2024-01-15T11:25:44;2.40;22.70
1179;DHT22;578;48.408;10.004;2024-01-15T11:27:47;2.30;28.70
1179;DHT22;578;48.408;10.004;2024-01-15T11:30:03;2.30;30.20
1179;DHT22;578;48.408;10.004;2024-01-15T11:32:06;2.30;27.80
1179;DHT22;578;48.408;10.004;2024-01-15T11:34:09;2.30;29.20
1179;DHT22;578;48.408;10.004;2024-01-15T11:36:11;2.30;29.90
1179;DHT22;578;48.408;10.004;2024-01-15T11:38:26;2.30;23.00
1179;DHT22;578;48.408;10.004;2024-01-15T11:40:39;2.30;31.80
1179;DHT22;578;48.408;10.004;2024-01-15T11:42:40;2.40;26.40
1179;DHT22;578;48.408;10.004;2024-01-15T11:44:42;2.40;28.10
1179;DHT22;578;48.408;10.004;2024-01-15T11:46:55;2.40;24.50
1179;DHT22;578;48.408;10.004;2024-01-15T11:49:03;2.50;29.60
1179;DHT22;578;48.408;10.004;2024-01-15T11:51:06;2.50;25.80
1179;DHT22;578;48.408;10.004;2024-01-15T11:53:27;2.40;27.90
1179;DHT22;578;48.408;10.004;2024-01-15T11:55:35;2.40;30.80
1179;DHT22;578;48.408;10.004;2024-01-15T11:57:41;2.50;30.00
1179;DHT22;578;48.408;10.004;2024-01-15T11:59:43;2.50;28.60
1179;DHT22;578;48.408;10.004;2024-01-15T12:01:45;2.40;27.80
1179;DHT22;578;48.408;10.004;2024-01-15T12:03:47;2.40;26.70
1179;DHT22;578;48.408;10.004;2024-01-15T12:05:49;2.40;30.80
1179;DHT22;578;48.408;10.004;2024-01-15T12:07:50;2.40;35.80
1179;DHT22;578;48.408;10.004;2024-01-15T12:09:53;2.30;38.10
1179;DHT22;578;48.408;10.004;2024-01-15T12:12:03;2.30;32.50
1179;DHT22;578;48.408;10.004;2024-01-15T12:14:07;2.20;37.20
1179;DHT22;578;48.408;10.004;2024-01-15T12:16:09;2.30;40.50
1179;DHT22;578;48.408;10.004;2024-01-15T12:18:13;2.20;42.50
1179;DHT22;578;48.408;10.004;2024-01-15T12:20:15;2.20;46.60
1179;DHT22;578;48.408;10.004;2024-01-15T12:22:16;2.20;46.20
1179;DHT22;578;48.408;10.004;2024-01-15T12:24:18;2.20;39.50
1179;DHT22;578;48.408;10.004;2024-01-15T12:26:21;2.20;46.00
1179;DHT22;578;48.408;10.004;2024-01-15T12:28:23;2.30;45.70
1179;DHT22;578;48.408;10.004;2024-01-15T12:30:26;2.30;36.20
1179;DHT22;578;48.408;10.004;2024-01-15T12:32:26;2.40;44.40
1179;DHT22;578;48.408;10.004;2024-01-15T12:34:29;2.40;41.20
1179;DHT22;578;48.408;10.004;2024-01-15T12:36:30;2.50;39.00
1179;DHT22;578;48.408;10.004;2024-01-15T12:38:32;2.50;42.50
1179;DHT22;578;48.408;10.004;2024-01-15T12:40:34;2.50;39.40
1179;DHT22;578;48.408;10.004;2024-01-15T12:42:37;2.60;44.70
1179;DHT22;578;48.408;10.004;2024-01-15T12:44:40;2.50;45.70
1179;DHT22;578;48.408;10.004;2024-01-15T12:46:41;2.40;49.50
1179;DHT22;578;48.408;10.004;2024-01-15T12:48:42;2.30;51.40
1179;DHT22;578;48.408;10.004;2024-01-15T12:50:44;2.30;54.10
1179;DHT22;578;48.408;10.004;2024-01-15T12:52:47;2.30;56.80
1179;DHT22;578;48.408;10.004;2024-01-15T12:54:51;2.20;58.00
1179;DHT22;578;48.408;10.004;2024-01-15T12:56:53;2.20;61.50
1179;DHT22;578;48.408;10.004;2024-01-15T12:58:56;2.20;54.00
1179;DHT22;578;48.408;10.004;2024-01-15T13:00:58;2.20;59.80
1179;DHT22;578;48.408;10.004;2024-01-15T13:03:00;2.20;62.30
1179;DHT22;578;48.408;10.004;2024-01-15T13:05:04;2.20;62.10
1179;DHT22;578;48.408;10.004;2024-01-15T13:07:06;2.20;65.90
1179;DHT22;578;48.408;10.004;2024-01-15T13:09:08;2.20;67.20
1179;DHT22;578;48.408;10.004;2024-01-15T13:11:11;2.20;62.60
1179;DHT22;578;48.408;10.004;2024-01-15T13:13:13;2.20;53.80
1179;DHT22;578;48.408;10.004;2024-01-15T13:15:16;2.20;58.10
1179;DHT22;578;48.408;10.004;2024-01-15T13:17:18;2.10;59.60
1179;DHT22;578;48.408;10.004;2024-01-15T13:19:21;2.10;63.10
1179;DHT22;578;48.408;10.004;2024-01-15T13:21:22;2.20;60.80
1179;DHT22;578;48.408;10.004;2024-01-15T13:23:24;2.20;63.90